createdAt,value
2022-11-17T00:07:24.490Z,100350.00
2022-11-17T00:18:16.623Z,100355.00
2022-11-17T00:28:37.812Z,100355.00
2022-11-17T00:39:00.594Z,100348.00
2022-11-17T00:49:25.146Z,100314.00
2022-11-17T00:59:47.999Z,100318.00
2022-11-17T01:10:11.198Z,100315.00
2022-11-17T01:32:45.345Z,100311.00
2022-11-17T01:54:12.375Z,100300.00
2022-11-17T02:05:04.776Z,100286.00
2022-11-17T02:27:31.568Z,100298.00
2022-11-17T02:38:02.088Z,100299.00
2022-11-17T02:48:29.244Z,100280.00
2022-11-17T02:58:51.782Z,100270.00
2022-11-17T03:09:22.707Z,100253.00
2022-11-17T03:19:47.138Z,100259.00
2022-11-17T03:30:11.684Z,100254.00
2022-11-17T03:40:35.252Z,100258.00
2022-11-17T04:02:32.755Z,100251.00
2022-11-17T04:13:14.377Z,100245.00
2022-11-17T04:23:39.985Z,100234.00
2022-11-17T04:34:21.164Z,100223.00
2022-11-17T04:44:47.225Z,100218.00
2022-11-17T04:55:12.858Z,100219.00
2022-11-17T05:05:34.868Z,100209.00
2022-11-17T05:16:19.221Z,100214.00
2022-11-17T05:26:41.128Z,100189.00
2022-11-17T05:37:04.881Z,100187.00
2022-11-17T05:47:26.985Z,100175.00
2022-11-17T05:57:51.522Z,100177.00
2022-11-17T06:08:13.167Z,100186.00
2022-11-17T06:18:42.970Z,100188.00
2022-11-17T06:29:06.021Z,100168.00
2022-11-17T06:39:28.864Z,100146.00
2022-11-17T06:49:51.185Z,100156.00
2022-11-17T07:00:16.186Z,100115.00
2022-11-17T07:10:38.821Z,100129.00
2022-11-17T07:21:04.844Z,100131.00
2022-11-17T07:31:30.937Z,100149.00
2022-11-17T07:41:58.886Z,100132.00
2022-11-17T07:52:25.405Z,100147.00
2022-11-17T08:02:55.398Z,100155.00
2022-11-17T08:13:26.727Z,100133.00
2022-11-17T08:24:02.017Z,100110.00
2022-11-17T08:34:24.931Z,100111.00
2022-11-17T08:44:50.250Z,100102.00
2022-11-17T08:55:14.488Z,100102.00
2022-11-17T09:05:44.815Z,100120.00
2022-11-17T09:16:09.447Z,100126.00
2022-11-17T09:26:32.314Z,100140.00
2022-11-17T09:36:57.659Z,100141.00
2022-11-17T09:47:33.253Z,100142.00
2022-11-17T09:58:04.566Z,100127.00
2022-11-17T10:08:34.561Z,100128.00
2022-11-17T10:18:57.080Z,100122.00
2022-11-17T10:29:23.870Z,100117.00
2022-11-17T10:39:45.674Z,100092.00
2022-11-17T10:50:19.151Z,100077.00
2022-11-17T11:00:40.878Z,100063.00
2022-11-17T11:11:16.981Z,100070.00
2022-11-17T11:21:50.738Z,100048.00
2022-11-17T11:32:25.698Z,100038.00
2022-11-17T11:42:57.669Z,100022.00
2022-11-17T11:53:26.151Z,100026.00
2022-11-17T12:03:57.826Z,100026.00
2022-11-17T12:14:20.728Z,100016.00
2022-11-17T12:24:44.250Z,100014.00
2022-11-17T12:35:26.645Z,100010.00
2022-11-17T12:46:16.929Z,99991.00
2022-11-17T12:56:47.526Z,100010.00
2022-11-17T13:07:19.757Z,100013.00
2022-11-17T13:17:44.265Z,100013.00
2022-11-17T13:28:06.809Z,100009.00
2022-11-17T13:38:29.569Z,99978.00
2022-11-17T13:48:51.712Z,99960.00
2022-11-17T13:59:27.566Z,99984.00
2022-11-17T14:09:49.425Z,99994.00
2022-11-17T14:20:33.194Z,99989.00
2022-11-17T14:30:57.838Z,99977.00
2022-11-17T14:41:23.548Z,99989.00
2022-11-17T14:51:49.189Z,99975.00
2022-11-17T15:02:12.749Z,99987.00
2022-11-17T15:12:36.750Z,99982.00
2022-11-17T15:23:03.249Z,99973.00
2022-11-17T15:33:25.029Z,99996.00
2022-11-17T15:43:49.264Z,99984.00
2022-11-17T16:06:12.417Z,99986.00
2022-11-17T16:16:37.893Z,99991.00
2022-11-17T16:27:01.148Z,99984.00
2022-11-17T16:37:22.639Z,99978.00
2022-11-17T16:47:45.127Z,99975.00
2022-11-17T16:58:07.957Z,99970.00
2022-11-17T17:08:30.934Z,99964.00
2022-11-17T17:18:55.793Z,99982.00
2022-11-17T17:29:18.933Z,99986.00
2022-11-17T17:39:40.867Z,99982.00
2022-11-17T17:50:03.502Z,99983.00
2022-11-17T18:00:24.952Z,99987.00
2022-11-17T18:10:52.361Z,99975.00
2022-11-17T18:21:17.183Z,99976.00
2022-11-17T18:31:47.627Z,99977.00
2022-11-17T18:42:23.272Z,99989.00
2022-11-17T18:52:57.115Z,99994.00
2022-11-17T19:03:50.617Z,100013.00
2022-11-17T19:14:13.802Z,99998.00
2022-11-17T19:24:35.810Z,100005.00
2022-11-17T19:35:09.620Z,100007.00
2022-11-17T19:45:35.427Z,99990.00
2022-11-17T19:56:01.540Z,99998.00
2022-11-17T20:06:41.892Z,100015.00
2022-11-17T20:18:17.795Z,100007.00
2022-11-17T20:28:45.183Z,100027.00
2022-11-17T20:39:34.497Z,100017.00
2022-11-17T20:51:02.282Z,100044.00
2022-11-17T21:01:56.916Z,100040.00
2022-11-17T21:13:06.637Z,100028.00
2022-11-17T21:24:09.420Z,100024.00
2022-11-17T21:34:31.111Z,100034.00
2022-11-17T21:45:20.409Z,100037.00
2022-11-17T21:55:41.844Z,100049.00
2022-11-17T22:06:13.596Z,100058.00
2022-11-17T22:16:35.970Z,100042.00
2022-11-17T22:26:58.977Z,100065.00
2022-11-17T22:37:20.728Z,100051.00
2022-11-17T22:47:43.425Z,100083.00
2022-11-17T22:58:07.032Z,100076.00
2022-11-17T23:08:29.826Z,100079.00
2022-11-17T23:18:53.560Z,100075.00
2022-11-17T23:29:16.506Z,100078.00
2022-11-17T23:39:38.289Z,100075.00
2022-11-17T23:50:02.918Z,100113.00
